Time;durP1;ratioP1;P1;durP2;ratioP2;P2;SDS_P1;SDS_P2;PMS_P1;PMS_P2;Temp;Humidity;BMP_temperature;BMP_pressure;BME280_temperature;BME280_humidity;BME280_pressure;Samples;Min_cycle;Max_cycle;Signal;HPM_P1;HPM_P2
2023/04/12 00:00:19;;;;;;;8.65;1.70;;;11.80;99.90;;;11.02;100.00;100043.50;4136307;28;20026;-76
2023/04/12 00:02:20;;;;;;;11.18;2.38;;;11.70;99.90;;;10.94;100.00;100036.44;4134917;28;20080;-76
2023/04/12 00:04:25;;;;;;;8.32;1.98;;;11.70;99.90;;;10.92;100.00;100053.44;4136387;28;20027;-77
2023/04/12 00:06:31;;;;;;;11.00;2.60;;;11.60;99.90;;;10.84;100.00;100045.59;4136235;28;20026;-76
2023/04/12 00:08:34;;;;;;;8.30;1.90;;;11.60;99.90;;;10.83;100.00;100055.31;4136118;28;20509;-76
2023/04/12 00:10:35;;;;;;;8.65;1.52;;;11.60;99.90;;;10.82;100.00;100052.84;4136423;28;20025;-76
2023/04/12 00:12:36;;;;;;;5.85;1.02;;;11.60;99.90;;;10.59;100.00;100031.72;4134941;28;20104;-76
2023/04/12 00:14:37;;;;;;;5.60;1.00;;;11.50;99.90;;;10.70;100.00;100049.78;4130249;28;20026;-76
2023/04/12 00:16:38;;;;;;;5.13;1.08;;;11.50;99.90;;;10.62;100.00;100052.47;4136005;28;20058;-76
2023/04/12 00:18:38;;;;;;;4.15;0.82;;;11.50;99.90;;;10.47;100.00;100031.28;4134839;28;20063;-76
2023/04/12 00:20:42;;;;;;;4.82;1.10;;;11.40;99.90;;;10.45;100.00;100019.25;4129410;28;20034;-76
2023/04/12 00:22:43;;;;;;;3.75;0.93;;;11.40;99.90;;;10.57;100.00;100036.34;4129009;28;20081;-76
2023/04/12 00:24:46;;;;;;;9.63;1.05;;;11.30;99.90;;;10.54;100.00;100029.56;4132111;28;20022;-76
2023/04/12 00:26:47;;;;;;;7.85;1.20;;;11.30;99.90;;;10.54;100.00;100018.22;4134942;28;20040;-77
2023/04/12 00:28:47;;;;;;;3.80;0.98;;;11.30;99.90;;;10.48;100.00;100017.09;4136294;28;20050;-76
2023/04/12 00:30:48;;;;;;;4.55;0.85;;;11.30;99.90;;;10.40;100.00;100011.03;4134898;28;20114;-76
2023/04/12 00:32:49;;;;;;;5.35;0.98;;;11.30;99.90;;;10.36;100.00;100004.47;4116019;28;20035;-76
2023/04/12 00:34:51;;;;;;;2.88;1.05;;;11.20;99.90;;;10.33;100.00;100010.09;4134960;28;20542;-76
2023/04/12 00:36:51;;;;;;;3.83;0.68;;;11.20;99.90;;;10.38;100.00;100013.03;4136122;28;20057;-76
2023/04/12 00:38:52;;;;;;;6.05;1.10;;;11.20;99.90;;;10.36;100.00;100010.56;4136057;28;20023;-76
2023/04/12 00:40:53;;;;;;;3.90;1.10;;;11.20;99.90;;;10.33;100.00;99999.56;4135917;28;20026;-76
2023/04/12 00:42:55;;;;;;;3.17;0.60;;;11.20;99.90;;;10.36;100.00;100000.00;4132849;28;20037;-76
2023/04/12 00:44:56;;;;;;;4.53;0.63;;;11.20;99.90;;;10.35;100.00;99995.75;4119928;28;20030;-76
2023/04/12 00:46:58;;;;;;;1.70;0.63;;;11.10;99.90;;;10.39;100.00;100006.78;4120014;28;20026;-76
2023/04/12 00:49:01;;;;;;;3.58;0.63;;;11.10;99.90;;;10.18;100.00;99981.00;4131247;28;20116;-76
2023/04/12 00:51:03;;;;;;;3.15;0.68;;;11.10;99.90;;;10.26;100.00;99998.59;4134295;28;20028;-76
2023/04/12 00:53:04;;;;;;;5.20;0.75;;;11.10;99.90;;;10.30;100.00;100006.00;4134367;28;20042;-76
2023/04/12 00:55:08;;;;;;;5.00;0.85;;;11.10;99.90;;;10.26;100.00;99993.31;4118645;28;20031;-77
2023/04/12 00:57:09;;;;;;;6.43;0.90;;;11.10;99.90;;;10.35;100.00;99998.38;4135535;28;20027;-76
2023/04/12 00:59:10;;;;;;;2.25;0.85;;;11.10;99.90;;;10.36;100.00;100005.28;4134485;28;20034;-77
2023/04/12 01:01:11;;;;;;;2.97;1.02;;;11.10;99.90;;;10.32;100.00;99992.63;4124463;28;20030;-77
2023/04/12 01:03:12;;;;;;;6.18;0.93;;;11.10;99.90;;;10.30;100.00;99986.72;4128193;28;20050;-77
2023/04/12 01:05:20;;;;;;;3.10;0.80;;;11.10;99.90;;;10.33;100.00;99996.91;4131556;28;20022;-77
2023/04/12 01:08:10;;;;;;;4.63;1.30;;;11.10;99.90;;;10.33;100.00;99983.72;4122615;28;20641;-76
2023/04/12 01:10:33;;;;;;;3.35;0.65;;;11.10;99.90;;;10.30;100.00;99978.81;4118837;28;20066;-76
2023/04/12 01:13:11;;;;;;;6.15;0.68;;;11.10;99.90;;;10.27;100.00;99974.72;4121551;28;20537;-76
2023/04/12 01:15:15;;;;;;;6.55;1.08;;;11.10;99.90;;;10.29;100.00;99969.25;4135460;28;20034;-76
2023/04/12 01:17:23;;;;;;;8.60;1.00;;;11.10;99.90;;;10.22;100.00;99970.91;4137649;28;20109;-76
2023/04/12 01:19:27;;;;;;;3.40;1.00;;;11.10;99.90;;;10.22;100.00;99965.66;4131886;28;20151;-77
2023/04/12 01:21:59;;;;;;;3.80;0.60;;;11.00;99.90;;;10.20;100.00;99962.38;4137416;28;20031;-76
2023/04/12 01:24:31;;;;;;;8.30;1.92;;;11.00;99.90;;;10.20;100.00;99963.19;4128733;28;20042;-76
2023/04/12 01:26:45;;;;;;;4.38;1.42;;;11.00;99.90;;;10.22;100.00;99968.28;4132358;28;20040;-76
2023/04/12 01:28:51;;;;;;;5.60;1.08;;;11.00;99.90;;;10.26;100.00;99961.69;4137314;28;20033;-76
2023/04/12 01:30:53;;;;;;;6.95;1.40;;;11.00;99.90;;;10.29;100.00;99956.91;4115711;28;20499;-76
2023/04/12 01:32:58;;;;;;;7.72;0.90;;;11.00;99.90;;;10.17;100.00;99936.38;4121070;28;20026;-77
2023/04/12 01:35:01;;;;;;;6.88;0.80;;;11.10;99.90;;;10.23;100.00;99935.66;4137632;28;20513;-76
2023/04/12 01:37:03;;;;;;;4.33;1.10;;;11.10;99.90;;;10.32;100.00;99943.38;4121302;28;20031;-76
2023/04/12 01:39:05;;;;;;;5.40;0.60;;;11.10;99.90;;;10.28;100.00;99928.06;4137244;28;20685;-77
2023/04/12 01:41:07;;;;;;;6.13;0.90;;;11.10;99.90;;;10.32;100.00;99932.81;4153530;28;20079;-76
2023/04/12 01:43:14;;;;;;;4.03;1.33;;;11.10;99.90;;;10.33;100.00;99926.56;4136923;28;20062;-76
2023/04/12 01:45:15;;;;;;;6.43;1.40;;;11.10;99.90;;;10.22;100.00;99916.41;4138137;28;20026;-76
2023/04/12 01:47:16;;;;;;;5.90;0.85;;;11.10;99.90;;;10.40;100.00;99927.50;4137364;28;20041;-77
2023/04/12 01:49:18;;;;;;;7.72;1.75;;;11.10;99.90;;;10.26;100.00;99909.78;4136492;28;20031;-77
2023/04/12 01:51:57;;;;;;;10.27;1.15;;;11.20;99.90;;;10.37;100.00;99929.66;4120986;28;20078;-77
2023/04/12 01:54:15;;;;;;;4.55;0.90;;;11.20;99.90;;;10.37;100.00;99916.47;4119017;28;20429;-76
2023/04/12 01:56:19;;;;;;;7.05;1.17;;;11.20;99.90;;;10.27;100.00;99900.06;4121747;28;20076;-76
2023/04/12 01:58:22;;;;;;;5.15;1.13;;;11.20;99.90;;;10.42;100.00;99922.84;4137006;28;20121;-77
2023/04/12 02:00:24;;;;;;;7.78;1.27;;;11.20;99.90;;;10.38;100.00;99915.47;4133154;28;20030;-76
2023/04/12 02:02:26;;;;;;;5.18;1.00;;;11.20;99.90;;;10.40;100.00;99919.59;4136787;28;20022;-77
2023/04/12 02:04:27;;;;;;;8.65;1.10;;;11.20;99.90;;;10.58;100.00;99932.47;4128106;28;20029;-77
2023/04/12 02:06:29;;;;;;;6.75;1.25;;;11.20;99.90;;;10.48;100.00;99958.28;4137150;28;20030;-76
2023/04/12 02:08:30;;;;;;;5.55;1.13;;;11.20;99.90;;;10.29;100.00;99971.88;4133312;28;20042;-77
2023/04/12 02:10:32;;;;;;;3.28;0.80;;;11.20;99.90;;;9.48;100.00;99972.13;4136921;28;20494;-76
2023/04/12 02:12:33;;;;;;;2.47;0.50;;;10.80;99.90;;;8.82;100.00;99965.28;4110931;28;20037;-76
2023/04/12 02:14:34;;;;;;;7.30;1.13;;;10.20;99.90;;;8.38;100.00;99986.72;4120517;28;20026;-76
2023/04/12 02:16:35;;;;;;;2.92;0.77;;;9.80;99.90;;;8.35;100.00;99977.38;4133117;28;20034;-77
2023/04/12 02:18:36;;;;;;;3.13;0.93;;;9.50;99.90;;;8.19;100.00;99957.09;4137810;28;20034;-76
2023/04/12 02:20:37;;;;;;;4.75;1.05;;;9.30;99.90;;;8.10;100.00;99968.56;4137767;28;20026;-77
2023/04/12 02:22:38;;;;;;;4.60;1.35;;;9.10;99.90;;;7.86;100.00;99963.19;4137831;28;20033;-76
2023/04/12 02:24:39;;;;;;;8.35;0.98;;;8.90;99.90;;;7.88;100.00;99973.56;4120414;28;20031;-76
2023/04/12 02:26:40;;;;;;;4.85;1.10;;;8.80;99.90;;;7.76;100.00;99981.69;4135892;28;20599;-77
2023/04/12 02:28:41;;;;;;;6.28;0.85;;;8.70;99.90;;;7.78;100.00;99979.75;4152952;28;20143;-76
2023/04/12 02:30:42;;;;;;;4.80;0.90;;;8.70;99.90;;;7.66;100.00;99960.00;4137673;28;20532;-76
2023/04/12 02:32:44;;;;;;;4.00;1.00;;;8.60;99.90;;;7.64;100.00;99977.72;4137750;28;20066;-76
2023/04/12 02:34:50;;;;;;;3.90;0.75;;;8.60;99.90;;;7.57;100.00;99939.09;4136166;28;20023;-76
2023/04/12 02:36:51;;;;;;;6.63;1.15;;;8.60;99.90;;;7.65;100.00;99958.34;4136494;28;20034;-76
2023/04/12 02:38:53;;;;;;;4.95;1.02;;;8.60;99.90;;;7.68;100.00;99962.44;4137565;28;20026;-76
2023/04/12 02:40:55;;;;;;;5.82;0.85;;;8.60;99.90;;;7.52;100.00;99957.13;4137686;28;20037;-76
2023/04/12 02:42:55;;;;;;;4.30;1.42;;;8.50;99.90;;;7.63;100.00;99973.44;4135052;28;20023;-76
2023/04/12 02:44:56;;;;;;;4.03;1.00;;;8.50;99.90;;;7.57;100.00;99960.94;4121506;28;20097;-75
2023/04/12 02:46:58;;;;;;;3.58;0.90;;;8.50;99.90;;;7.64;100.00;99964.59;4121596;28;20023;-76
2023/04/12 02:48:59;;;;;;;3.10;1.33;;;8.50;99.90;;;7.61;100.00;99957.03;4115447;28;20038;-76
2023/04/12 02:51:00;;;;;;;5.72;1.17;;;8.60;99.90;;;7.56;100.00;99951.41;4118542;28;20026;-76
2023/04/12 02:53:00;;;;;;;5.53;1.00;;;8.50;99.90;;;7.58;100.00;99967.84;4136278;28;20202;-76
2023/04/12 02:55:02;;;;;;;3.92;0.90;;;8.50;99.90;;;7.63;100.00;99975.22;4137354;28;20439;-76
2023/04/12 02:57:03;;;;;;;3.05;1.02;;;8.50;99.90;;;7.63;100.00;99970.81;4135566;28;20113;-75
2023/04/12 02:59:05;;;;;;;6.10;1.40;;;8.50;99.90;;;7.51;100.00;99966.81;4118313;28;20567;-75
2023/04/12 03:01:06;;;;;;;8.95;1.65;;;8.50;99.90;;;7.56;100.00;99979.44;4126287;28;20482;-76
2023/04/12 03:03:07;;;;;;;8.27;1.67;;;8.50;99.90;;;7.40;100.00;99980.19;4136045;28;20026;-76
2023/04/12 03:05:09;;;;;;;3.88;0.82;;;8.40;99.90;;;7.50;100.00;100008.94;4131125;28;20087;-76
2023/04/12 03:07:10;;;;;;;2.95;1.10;;;8.40;99.90;;;7.43;100.00;100006.13;4134019;28;20030;-76
2023/04/12 03:09:11;;;;;;;5.85;1.20;;;8.40;99.90;;;7.47;100.00;100009.22;4152145;28;20044;-76
2023/04/12 03:11:11;;;;;;;7.57;1.10;;;8.40;99.90;;;7.48;100.00;100008.28;4110957;28;20409;-76
2023/04/12 03:13:13;;;;;;;5.80;1.50;;;8.40;99.90;;;7.46;100.00;100015.47;4137036;28;20030;-76
2023/04/12 03:15:13;;;;;;;5.43;1.38;;;8.40;99.90;;;7.33;100.00;100009.81;4135733;28;20037;-76
2023/04/12 03:17:14;;;;;;;4.78;1.25;;;8.30;99.90;;;7.28;100.00;100005.03;4123545;28;20030;-76
2023/04/12 03:19:16;;;;;;;5.63;1.25;;;8.30;99.90;;;7.35;100.00;100008.66;4135828;28;20038;-76
2023/04/12 03:21:17;;;;;;;6.43;1.42;;;8.30;99.90;;;7.38;100.00;100024.09;4136920;28;20023;-76
2023/04/12 03:23:19;;;;;;;3.53;1.05;;;8.20;99.90;;;7.19;100.00;100011.19;4135586;28;20037;-76
2023/04/12 03:25:20;;;;;;;4.05;0.95;;;8.20;99.90;;;7.34;100.00;100035.91;4131276;28;20026;-76
2023/04/12 03:27:21;;;;;;;7.40;1.42;;;8.20;99.90;;;7.26;100.00;100043.69;4135402;28;20034;-76
2023/04/12 03:29:22;;;;;;;3.53;0.95;;;8.20;99.90;;;7.16;100.00;100003.63;4129568;28;20033;-76
2023/04/12 03:31:23;;;;;;;4.05;1.00;;;8.20;99.90;;;7.19;100.00;99977.91;4133775;28;20490;-76
2023/04/12 03:33:24;;;;;;;4.40;1.80;;;8.10;99.90;;;7.15;100.00;99979.19;4136143;28;20026;-77
2023/04/12 03:35:25;;;;;;;7.00;1.00;;;8.10;99.90;;;6.98;100.00;99972.19;4136788;28;20026;-76
2023/04/12 03:37:26;;;;;;;2.60;0.90;;;8.00;99.90;;;7.03;100.00;99987.44;4135466;28;20030;-76
2023/04/12 03:39:28;;;;;;;2.38;1.10;;;7.90;99.90;;;6.99;100.00;99988.75;4136500;28;20049;-76
2023/04/12 03:41:28;;;;;;;4.97;1.08;;;7.90;99.90;;;6.94;100.00;99973.44;4136476;28;20446;-76
2023/04/12 03:43:34;;;;;;;4.55;0.80;;;7.90;99.90;;;6.98;100.00;99960.88;4135288;28;20057;-76
2023/04/12 03:45:35;;;;;;;5.47;1.10;;;7.90;99.90;;;6.97;100.00;99948.72;4135430;28;20390;-76
2023/04/12 03:47:36;;;;;;;6.57;0.98;;;7.90;99.90;;;6.97;100.00;99946.09;4135447;28;20031;-76
2023/04/12 03:49:37;;;;;;;7.03;1.60;;;7.90;99.90;;;6.95;100.00;99953.31;4122412;28;20105;-76
2023/04/12 03:51:42;;;;;;;5.60;1.50;;;7.80;99.90;;;6.75;100.00;99936.91;4126743;28;20030;-76
2023/04/12 03:53:43;;;;;;;3.05;0.90;;;7.80;99.90;;;6.77;100.00;99949.88;4135122;28;20089;-76
2023/04/12 03:55:44;;;;;;;5.03;1.13;;;7.70;99.90;;;6.74;100.00;99969.34;4135376;28;20026;-76
2023/04/12 03:57:45;;;;;;;3.05;0.90;;;7.70;99.90;;;6.71;100.00;99981.91;4135375;28;20030;-76
2023/04/12 03:59:46;;;;;;;4.72;1.50;;;7.60;99.90;;;6.53;100.00;99964.41;4135218;28;20058;-75
2023/04/12 04:01:47;;;;;;;3.63;0.98;;;7.50;99.90;;;6.45;100.00;99961.69;4136203;28;20027;-75
2023/04/12 04:03:48;;;;;;;6.05;1.30;;;7.40;99.90;;;6.43;100.00;99978.53;4135014;28;20034;-75
2023/04/12 04:05:49;;;;;;;5.50;1.00;;;7.30;99.90;;;6.35;100.00;99981.06;4135134;28;20452;-76
2023/04/12 04:07:50;;;;;;;6.60;1.02;;;7.30;99.90;;;6.27;100.00;99983.59;4130149;28;20371;-76
2023/04/12 04:09:53;;;;;;;4.88;0.70;;;7.20;99.90;;;6.17;100.00;99983.66;4120357;28;20041;-76
2023/04/12 04:11:54;;;;;;;3.85;1.10;;;7.10;99.90;;;6.24;100.00;100010.91;4119119;28;20433;-75
2023/04/12 04:13:55;;;;;;;5.25;0.77;;;7.10;99.90;;;6.17;100.00;100020.31;4123402;28;20110;-75
2023/04/12 04:16:04;;;;;;;5.35;1.85;;;7.00;99.90;;;6.15;100.00;100027.50;4136362;28;20034;-76
2023/04/12 04:18:05;;;;;;;3.08;0.80;;;7.00;99.90;;;6.06;100.00;100028.38;4134883;28;20505;-76
2023/04/12 04:20:07;;;;;;;3.53;1.40;;;7.00;99.90;;;5.99;100.00;100035.97;4133549;28;20026;-75
2023/04/12 04:22:08;;;;;;;7.28;2.10;;;6.90;99.90;;;5.93;100.00;100028.69;4136234;28;20029;-75
2023/04/12 04:24:10;;;;;;;4.97;1.08;;;6.80;99.90;;;5.85;100.00;100030.34;4118970;28;20054;-75
2023/04/12 04:26:11;;;;;;;2.80;0.90;;;6.70;99.90;;;5.77;100.00;100024.97;4130396;28;20049;-76
2023/04/12 04:28:14;;;;;;;6.25;1.05;;;6.70;99.90;;;5.76;100.00;100036.44;4134863;28;20029;-75
2023/04/12 04:30:15;;;;;;;3.90;0.80;;;6.60;99.90;;;5.74;100.00;100039.19;4122917;28;20048;-76
2023/04/12 04:32:16;;;;;;;4.60;1.20;;;6.60;99.90;;;5.70;100.00;100037.84;4126049;28;20539;-75
2023/04/12 04:34:17;;;;;;;4.22;1.02;;;6.60;99.90;;;5.71;100.00;100043.88;4150985;28;20025;-76
2023/04/12 04:36:18;;;;;;;4.95;0.98;;;6.60;99.90;;;5.71;100.00;100049.94;4133000;28;20061;-75
2023/04/12 04:38:24;;;;;;;7.30;1.10;;;6.60;99.90;;;5.72;100.00;100056.00;4136136;28;20033;-76
2023/04/12 04:40:25;;;;;;;6.22;1.10;;;6.50;99.90;;;5.60;100.00;100042.25;4136028;28;20022;-75
2023/04/12 04:42:28;;;;;;;4.35;1.15;;;6.50;99.90;;;5.66;100.00;100051.31;4135832;28;20015;-76
2023/04/12 04:44:29;;;;;;;5.22;1.10;;;6.50;99.90;;;5.61;100.00;100045.72;4121316;28;20055;-76
2023/04/12 04:46:30;;;;;;;6.03;1.35;;;6.50;99.90;;;5.66;100.00;100056.56;4126889;28;20028;-76
2023/04/12 04:48:31;;;;;;;4.20;1.40;;;6.50;99.90;;;5.70;100.00;100063.19;4128851;28;20081;-75
2023/04/12 04:50:32;;;;;;;5.05;1.08;;;6.50;99.90;;;5.72;100.00;100072.53;4123110;28;20027;-76
2023/04/12 04:52:33;;;;;;;5.88;2.28;;;6.50;99.90;;;5.67;100.00;100060.84;4121677;28;20027;-76
2023/04/12 04:54:34;;;;;;;4.50;1.40;;;6.60;99.90;;;5.74;100.00;100065.34;4121964;28;20027;-76
2023/04/12 04:56:35;;;;;;;4.90;1.40;;;6.60;99.90;;;5.73;100.00;100060.28;4129456;28;20526;-76
2023/04/12 04:58:37;;;;;;;4.32;1.30;;;6.60;99.90;;;5.78;100.00;100078.97;4133994;28;20026;-76
2023/04/12 05:00:37;;;;;;;7.20;1.67;;;6.60;99.90;;;5.72;100.00;100076.94;4137817;28;20026;-75
2023/04/12 05:02:42;;;;;;;4.68;1.52;;;6.60;99.90;;;5.67;100.00;100071.31;4126086;28;20023;-76
2023/04/12 05:04:43;;;;;;;4.65;1.48;;;6.60;99.90;;;5.57;100.00;100061.69;4137928;28;20592;-75
2023/04/12 05:06:45;;;;;;;3.85;1.20;;;6.50;99.90;;;5.73;100.00;100086.44;4121575;28;20023;-76
2023/04/12 05:08:46;;;;;;;6.38;1.88;;;6.50;99.90;;;5.62;100.00;100060.41;4136266;28;20030;-76
2023/04/12 05:10:54;;;;;;;5.38;1.35;;;6.60;99.90;;;5.74;100.00;100081.06;4121424;28;20027;-76
2023/04/12 05:12:55;;;;;;;7.10;2.30;;;6.60;99.90;;;5.75;100.00;100071.41;4138932;28;20035;-76
2023/04/12 05:14:56;;;;;;;4.95;1.30;;;6.60;99.90;;;5.77;100.00;100083.38;4138893;28;20034;-76
2023/04/12 05:16:57;;;;;;;9.82;2.63;;;6.70;99.90;;;5.80;100.00;100080.47;4137401;28;20129;-76
2023/04/12 05:18:58;;;;;;;5.30;2.00;;;6.60;99.90;;;5.69;100.00;100071.97;4138842;28;20027;-76
2023/04/12 05:21:05;;;;;;;7.30;2.20;;;6.70;99.90;;;5.81;100.00;100094.41;4137654;28;20402;-76
2023/04/12 05:23:06;;;;;;;5.18;1.83;;;6.60;99.90;;;5.76;100.00;100088.78;4133734;28;20026;-76
2023/04/12 05:25:07;;;;;;;6.55;2.00;;;6.60;99.90;;;5.73;100.00;100091.66;4138172;28;20050;-75
2023/04/12 05:27:08;;;;;;;8.02;3.42;;;6.60;99.90;;;5.66;100.00;100083.56;4137681;28;20505;-76
2023/04/12 05:29:09;;;;;;;6.97;2.80;;;6.60;99.90;;;5.74;100.00;100090.69;4131254;28;20037;-76
2023/04/12 05:31:10;;;;;;;11.32;3.13;;;6.60;99.90;;;5.61;100.00;100082.34;4138780;28;20030;-76
2023/04/12 05:33:11;;;;;;;8.85;3.88;;;6.60;99.90;;;5.59;100.00;100088.50;4137429;28;20572;-76
2023/04/12 05:35:12;;;;;;;4.82;2.88;;;6.50;99.90;;;5.56;100.00;100088.78;4137340;28;20032;-76
2023/04/12 05:37:13;;;;;;;9.45;2.45;;;6.50;99.90;;;5.63;100.00;100098.69;4145065;28;20026;-76
2023/04/12 05:39:13;;;;;;;7.60;2.25;;;6.50;99.90;;;5.49;100.00;100090.34;4137204;28;20471;-76
2023/04/12 05:41:14;;;;;;;6.18;2.35;;;6.50;99.90;;;5.57;100.00;100116.63;4123406;28;20114;-76
2023/04/12 05:43:16;;;;;;;8.90;2.78;;;6.50;99.90;;;5.50;100.00;100112.06;4134722;28;20045;-76
2023/04/12 05:45:17;;;;;;;12.13;3.55;;;6.40;99.90;;;5.41;100.00;100094.59;4129236;28;20033;-76
2023/04/12 05:47:18;;;;;;;7.38;2.33;;;6.40;99.90;;;5.61;100.00;100129.41;4133372;28;20104;-76
2023/04/12 05:49:19;;;;;;;10.07;2.50;;;6.40;99.90;;;5.55;100.00;100118.53;4136745;28;20501;-76
2023/04/12 05:51:20;;;;;;;10.27;2.13;;;6.50;99.90;;;5.55;100.00;100126.38;4125665;28;20081;-76
2023/04/12 05:53:21;;;;;;;5.97;1.85;;;6.50;99.90;;;5.54;100.00;100122.13;4128604;28;20556;-76
2023/04/12 05:55:22;;;;;;;6.80;2.05;;;6.40;99.90;;;5.64;100.00;100139.59;4138144;28;20041;-76
2023/04/12 05:57:23;;;;;;;9.57;2.42;;;6.50;99.90;;;5.51;100.00;100116.34;4137570;28;20030;-76
2023/04/12 05:59:24;;;;;;;8.45;1.98;;;6.50;99.90;;;5.64;100.00;100148.28;4136636;28;20065;-76
2023/04/12 06:01:29;;;;;;;11.38;2.53;;;6.50;99.90;;;5.57;100.00;100128.88;4136819;28;20034;-76
2023/04/12 06:03:31;;;;;;;9.88;2.22;;;6.50;99.90;;;5.65;100.00;100144.69;4137160;28;20421;-76
2023/04/12 06:05:33;;;;;;;11.68;2.13;;;6.50;99.90;;;5.57;100.00;100136.72;4136897;28;20426;-76
2023/04/12 06:07:34;;;;;;;7.47;2.03;;;6.50;99.90;;;5.65;100.00;100144.69;4125101;28;20110;-75
2023/04/12 06:09:35;;;;;;;7.82;1.98;;;6.50;99.90;;;5.68;100.00;100154.88;4129451;28;20023;-76
2023/04/12 06:11:37;;;;;;;7.32;1.95;;;6.50;99.90;;;5.70;100.00;100146.91;4131073;28;20031;-76
2023/04/12 06:13:38;;;;;;;8.52;1.73;;;6.50;99.90;;;5.72;100.00;100151.03;4136625;28;20031;-76
2023/04/12 06:15:39;;;;;;;10.20;1.90;;;6.60;99.90;;;5.73;100.00;100157.09;4124820;28;20053;-76
2023/04/12 06:17:40;;;;;;;8.18;1.48;;;6.60;99.90;;;5.79;100.00;100167.00;4127945;28;20460;-76
2023/04/12 06:19:41;;;;;;;7.88;1.60;;;6.60;99.90;;;5.83;100.00;100163.13;4127514;28;20039;-76
2023/04/12 06:21:42;;;;;;;6.63;1.92;;;6.70;99.90;;;5.94;100.00;100163.81;4121742;28;20070;-76
2023/04/12 06:23:43;;;;;;;8.27;1.27;;;6.80;99.90;;;6.16;100.00;100178.38;4120906;28;20106;-76
2023/04/12 06:25:44;;;;;;;9.43;2.25;;;6.90;99.90;;;6.22;100.00;100151.63;4121770;28;20394;-75
2023/04/12 06:27:45;;;;;;;11.23;1.70;;;7.10;99.90;;;6.43;100.00;100162.72;4125534;28;20029;-76
2023/04/12 06:29:45;;;;;;;5.28;1.48;;;7.20;99.90;;;6.53;100.00;100178.44;4124408;28;20027;-76
2023/04/12 06:31:47;;;;;;;6.75;1.73;;;7.30;99.90;;;6.57;100.00;100167.50;4121741;28;20455;-76
2023/04/12 06:33:49;;;;;;;7.63;1.88;;;7.40;99.90;;;6.85;100.00;100168.34;4130898;28;20046;-76
2023/04/12 06:35:50;;;;;;;6.22;1.35;;;7.50;99.90;;;7.06;100.00;100175.94;4130443;28;20035;-76
2023/04/12 06:37:51;;;;;;;9.90;2.00;;;7.70;99.90;;;7.17;100.00;100180.97;4122955;28;20038;-76
2023/04/12 06:39:52;;;;;;;6.45;1.52;;;7.80;99.90;;;7.21;100.00;100174.47;4136033;28;20042;-75
2023/04/12 06:41:53;;;;;;;5.45;1.80;;;7.90;99.90;;;7.28;100.00;100185.19;4136007;28;20026;-76
2023/04/12 06:43:53;;;;;;;11.68;1.52;;;7.90;99.90;;;7.24;100.00;100179.41;4127669;28;20051;-76
2023/04/12 06:45:55;;;;;;;6.68;1.58;;;8.00;99.90;;;7.33;100.00;100178.53;4117341;28;20019;-76
2023/04/12 06:47:56;;;;;;;7.65;1.58;;;8.10;99.90;;;7.56;100.00;100181.53;4122668;28;20446;-76
2023/04/12 06:49:57;;;;;;;8.40;1.52;;;8.30;99.90;;;7.76;100.00;100177.78;4130412;28;20035;-75
2023/04/12 06:51:58;;;;;;;5.40;1.90;;;8.40;99.90;;;7.78;100.00;100174.03;4121459;28;20121;-75
2023/04/12 06:53:59;;;;;;;6.63;1.40;;;8.60;99.90;;;7.82;100.00;100158.81;4120026;28;20031;-76
2023/04/12 06:56:04;;;;;;;7.15;1.52;;;8.60;99.90;;;7.92;100.00;100177.91;4119914;28;20130;-75
2023/04/12 06:58:05;;;;;;;10.32;2.90;;;8.70;99.90;;;7.99;100.00;100159.72;4120250;28;20030;-76
2023/04/12 07:00:07;;;;;;;6.97;1.73;;;8.80;99.90;;;8.07;100.00;100163.25;4137266;28;20549;-75
2023/04/12 07:02:08;;;;;;;11.70;1.85;;;8.90;99.90;;;8.11;100.00;100163.75;4137238;28;20026;-76
2023/04/12 07:04:10;;;;;;;7.70;1.50;;;8.90;99.90;;;8.03;100.00;100161.09;4119869;28;20026;-75
2023/04/12 07:06:10;;;;;;;6.63;1.60;;;8.90;99.90;;;7.99;100.00;100136.09;4126089;28;20023;-76
2023/04/12 07:08:11;;;;;;;9.98;2.10;;;8.90;99.90;;;8.07;100.00;100157.16;4129497;28;20490;-77
2023/04/12 07:10:12;;;;;;;6.65;2.00;;;8.90;99.90;;;8.05;100.00;100159.13;4124484;28;20029;-76
2023/04/12 07:12:13;;;;;;;5.32;2.05;;;8.90;99.90;;;7.85;100.00;100147.16;4120584;28;20128;-77
2023/04/12 07:14:14;;;;;;;6.40;2.10;;;8.90;99.90;;;7.78;100.00;100145.16;4135698;28;20097;-76
2023/04/12 07:16:16;;;;;;;9.00;3.22;;;8.80;99.90;;;7.86;100.00;100172.44;4119702;28;20031;-76
2023/04/12 07:18:17;;;;;;;9.27;2.65;;;8.80;99.90;;;7.82;100.00;100173.72;4121206;28;20030;-76
2023/04/12 07:20:18;;;;;;;7.85;1.60;;;8.70;99.90;;;7.61;100.00;100176.66;4135605;28;20113;-76
2023/04/12 07:22:19;;;;;;;3.92;1.40;;;8.70;99.90;;;7.66;100.00;100179.66;4126459;28;20033;-76
2023/04/12 07:24:20;;;;;;;7.78;1.25;;;8.60;99.90;;;7.60;100.00;100181.09;4133705;28;20030;-75
2023/04/12 07:26:21;;;;;;;7.97;1.60;;;8.60;99.90;;;7.72;100.00;100165.94;4118946;28;20026;-77
2023/04/12 07:28:22;;;;;;;4.70;1.52;;;8.60;99.90;;;7.74;100.00;100150.84;4135001;28;20026;-77
2023/04/12 07:30:23;;;;;;;2.05;0.70;;;8.50;99.90;;;7.64;100.00;100143.06;4134886;28;20022;-76
2023/04/12 07:32:24;;;;;;;4.70;1.08;;;8.60;99.90;;;7.63;100.00;100128.28;4126808;28;20023;-75
2023/04/12 07:34:25;;;;;;;2.40;0.90;;;8.60;99.90;;;7.68;100.00;100139.16;4146800;28;20022;-76
2023/04/12 07:36:25;;;;;;;3.97;1.05;;;8.60;99.90;;;7.72;100.00;100147.56;4136031;28;20113;-76
2023/04/12 07:38:26;;;;;;;3.83;1.50;;;8.60;99.90;;;7.73;100.00;100134.28;4136204;28;20018;-75
2023/04/12 07:40:27;;;;;;;3.38;1.77;;;8.60;99.90;;;7.86;100.00;100138.28;4126226;28;20027;-76
2023/04/12 07:42:28;;;;;;;3.72;1.08;;;8.70;99.90;;;8.00;100.00;100161.41;4127439;28;20069;-77
2023/04/12 07:44:30;;;;;;;3.17;1.23;;;8.80;99.90;;;8.02;100.00;100141.88;4135954;28;20046;-76
2023/04/12 07:46:31;;;;;;;3.28;1.45;;;9.00;99.90;;;8.32;100.00;100151.13;4134686;28;20027;-76
2023/04/12 07:48:32;;;;;;;3.15;1.30;;;9.10;99.90;;;8.39;100.00;100140.81;4127083;28;20053;-76
2023/04/12 07:50:33;;;;;;;4.60;1.25;;;9.20;99.90;;;8.63;100.00;100143.56;4123491;28;20055;-76
2023/04/12 07:52:34;;;;;;;3.65;1.98;;;9.40;99.90;;;8.75;100.00;100160.69;4118715;28;20060;-76
2023/04/12 07:54:35;;;;;;;4.18;2.00;;;9.60;99.90;;;8.85;100.00;100156.94;4119837;28;20058;-78
2023/04/12 07:56:36;;;;;;;2.83;1.25;;;9.70;99.90;;;8.98;100.00;100151.22;4127022;28;20034;-79
2023/04/12 07:58:37;;;;;;;3.50;1.00;;;9.80;99.90;;;9.20;100.00;100168.25;4131950;28;20018;-78
2023/04/12 08:00:37;;;;;;;3.70;1.08;;;10.00;99.90;;;9.37;100.00;100159.38;4149173;28;20029;-78
2023/04/12 08:02:38;;;;;;;2.72;0.82;;;10.10;99.90;;;9.51;100.00;100168.44;4124214;28;20025;-77
2023/04/12 08:04:43;;;;;;;4.05;1.17;;;10.20;99.90;;;9.58;100.00;100169.44;4134864;28;20026;-78
2023/04/12 08:06:43;;;;;;;4.80;1.48;;;10.30;99.90;;;9.38;100.00;100166.28;4131189;28;20026;-79
2023/04/12 08:08:44;;;;;;;4.70;1.20;;;10.30;99.90;;;9.46;100.00;100176.84;4134176;28;20030;-78
2023/04/12 08:10:45;;;;;;;3.67;1.60;;;10.30;99.90;;;9.45;100.00;100180.44;4134659;28;20026;-76
2023/04/12 08:12:46;;;;;;;2.40;1.00;;;10.20;99.90;;;9.49;100.00;100171.25;4131082;28;20034;-77
2023/04/12 08:14:47;;;;;;;4.50;1.48;;;10.20;99.90;;;9.36;100.00;100173.50;4135629;28;20027;-79
2023/04/12 08:16:48;;;;;;;4.75;1.40;;;10.20;99.90;;;9.01;100.00;100160.59;4135636;28;20035;-78
2023/04/12 08:18:49;;;;;;;6.97;1.55;;;10.00;99.90;;;8.76;100.00;100165.78;4131093;28;20022;-78
2023/04/12 08:20:49;;;;;;;3.13;1.38;;;9.80;99.90;;;8.78;100.00;100169.06;4119642;28;20109;-77
2023/04/12 08:22:51;;;;;;;3.17;1.27;;;9.70;99.90;;;8.75;100.00;100174.63;4128352;28;20014;-77
2023/04/12 08:24:52;;;;;;;5.80;1.75;;;9.60;99.90;;;8.67;100.00;100169.34;4132613;28;20030;-77
2023/04/12 08:26:52;;;;;;;3.80;1.55;;;9.50;99.90;;;8.72;100.00;100167.06;4134368;28;20029;-77
2023/04/12 08:28:53;;;;;;;8.07;1.83;;;9.50;99.90;;;8.78;100.00;100173.53;4124510;28;20043;-76
2023/04/12 08:30:55;;;;;;;4.43;1.83;;;9.50;99.90;;;8.62;100.00;100179.53;4131151;28;20030;-76
2023/04/12 08:32:55;;;;;;;7.53;1.80;;;9.40;99.90;;;8.58;100.00;100174.72;4134658;28;20470;-77